SWR1PX LFMN-LSZH
Flight info
| Callsign | SWR1PX |
|---|---|
| Flight time | N/A |
| Altitude | 30000 |
| Route | IRMAR DCT KINES DCT VANAS DCT MOBLO DCT UBIMA DCT SOSAL DCT KORED N871 BERSU |
| Aircraft | A320/M-SDE2E3FGIRWXY/L |
Departure
| Time | 2026-05-05 18:58 |
|---|---|
| Airport | Nice-Côte d'Azur Airport (LFMN) |
Arrival
| Time | N/A |
|---|---|
| Airport | Zürich Airport (LSZH) |
| Time | Latitude | Longitude | Altitude | Speed | Heading |
|---|---|---|---|---|---|
| 2026-05-05 18:19 | 43.66476 | 7.21493 | 21 ft | 0 kts | 314° |
| 2026-05-05 18:41 | 43.66467 | 7.21506 | 21 ft | 4 kts | 315° |
| 2026-05-05 18:42 | 43.66449 | 7.21529 | 21 ft | 2 kts | 315° |
| 2026-05-05 18:42 | 43.66438 | 7.21553 | 21 ft | 4 kts | 259° |
| 2026-05-05 18:42 | 43.66449 | 7.21585 | 21 ft | 4 kts | 227° |
| 2026-05-05 18:42 | 43.66454 | 7.21591 | 22 ft | 0 kts | 225° |
| 2026-05-05 18:47 | 43.66435 | 7.21566 | 23 ft | 5 kts | 225° |
| 2026-05-05 18:48 | 43.66410 | 7.21537 | 23 ft | 5 kts | 209° |
| 2026-05-05 18:48 | 43.66373 | 7.21539 | 24 ft | 7 kts | 152° |
| 2026-05-05 18:48 | 43.66318 | 7.21600 | 21 ft | 13 kts | 160° |
| 2026-05-05 18:48 | 43.66229 | 7.21526 | 21 ft | 19 kts | 224° |
| 2026-05-05 18:49 | 43.66123 | 7.21382 | 21 ft | 24 kts | 225° |
| 2026-05-05 18:49 | 43.65993 | 7.21205 | 21 ft | 29 kts | 224° |
| 2026-05-05 18:49 | 43.65856 | 7.21012 | 21 ft | 28 kts | 224° |
| 2026-05-05 18:49 | 43.65733 | 7.20845 | 23 ft | 25 kts | 224° |
| 2026-05-05 18:50 | 43.65603 | 7.20667 | 21 ft | 27 kts | 226° |
| 2026-05-05 18:50 | 43.65466 | 7.20477 | 21 ft | 26 kts | 224° |
| 2026-05-05 18:50 | 43.65371 | 7.20348 | 21 ft | 14 kts | 224° |
| 2026-05-05 18:50 | 43.65296 | 7.20293 | 21 ft | 12 kts | 175° |
| 2026-05-05 18:51 | 43.65259 | 7.20320 | 21 ft | 0 kts | 140° |
| 2026-05-05 18:52 | 43.65254 | 7.20326 | 21 ft | 4 kts | 140° |
| 2026-05-05 18:52 | 43.65212 | 7.20375 | 22 ft | 12 kts | 137° |
| 2026-05-05 18:53 | 43.65145 | 7.20472 | 22 ft | 16 kts | 140° |
| 2026-05-05 18:53 | 43.65031 | 7.20495 | 22 ft | 18 kts | 197° |
| 2026-05-05 18:53 | 43.64936 | 7.20384 | 23 ft | 17 kts | 225° |
| 2026-05-05 18:53 | 43.64851 | 7.20270 | 22 ft | 17 kts | 223° |
| 2026-05-05 18:54 | 43.64770 | 7.20185 | 22 ft | 11 kts | 193° |
| 2026-05-05 18:54 | 43.64762 | 7.20184 | 22 ft | 0 kts | 185° |
| 2026-05-05 18:56 | 43.64734 | 7.20192 | 23 ft | 9 kts | 154° |
| 2026-05-05 18:57 | 43.64719 | 7.20302 | 25 ft | 16 kts | 59° |
| 2026-05-05 18:57 | 43.64737 | 7.20333 | 24 ft | 0 kts | 48° |
| 2026-05-05 18:57 | 43.64761 | 7.20367 | 24 ft | 31 kts | 46° |
| 2026-05-05 18:57 | 43.65117 | 7.20861 | 22 ft | 109 kts | 45° |
| 2026-05-05 18:58 | 43.65801 | 7.21798 | 52 ft | 163 kts | 45° |
| 2026-05-05 18:58 | 43.66623 | 7.22858 | 653 ft | 165 kts | 43° |
| 2026-05-05 18:58 | 43.67464 | 7.24053 | 1394 ft | 184 kts | 57° |
| 2026-05-05 18:58 | 43.67866 | 7.25822 | 2007 ft | 210 kts | 89° |
| 2026-05-05 18:59 | 43.67383 | 7.27870 | 2514 ft | 246 kts | 126° |
| 2026-05-05 18:59 | 43.66058 | 7.29528 | 3132 ft | 271 kts | 146° |
| 2026-05-05 18:59 | 43.64417 | 7.31034 | 3726 ft | 296 kts | 140° |
| 2026-05-05 18:59 | 43.63150 | 7.33386 | 4325 ft | 320 kts | 114° |
| 2026-05-05 19:00 | 43.62711 | 7.36501 | 4734 ft | 346 kts | 88° |
| 2026-05-05 19:00 | 43.63371 | 7.39690 | 5769 ft | 343 kts | 64° |
| 2026-05-05 19:00 | 43.64519 | 7.42473 | 7325 ft | 319 kts | 59° |
| 2026-05-05 19:00 | 43.65620 | 7.45034 | 7916 ft | 302 kts | 59° |
| 2026-05-05 19:01 | 43.66685 | 7.47511 | 8428 ft | 299 kts | 59° |
| 2026-05-05 19:01 | 43.67839 | 7.49906 | 8946 ft | 301 kts | 48° |
| 2026-05-05 19:01 | 43.69465 | 7.51708 | 9468 ft | 301 kts | 24° |
| 2026-05-05 19:01 | 43.71479 | 7.52381 | 9854 ft | 299 kts | 355° |
| 2026-05-05 19:02 | 43.73417 | 7.51609 | 9928 ft | 288 kts | 323° |
| 2026-05-05 19:02 | 43.74756 | 7.49646 | 9938 ft | 279 kts | 295° |
| 2026-05-05 19:02 | 43.75290 | 7.47125 | 9945 ft | 268 kts | 274° |
| 2026-05-05 19:02 | 43.75489 | 7.44717 | 9936 ft | 237 kts | 274° |
| 2026-05-05 19:03 | 43.75671 | 7.42513 | 9942 ft | 225 kts | 274° |
| 2026-05-05 19:03 | 43.75848 | 7.40277 | 9949 ft | 254 kts | 274° |
| 2026-05-05 19:03 | 43.76045 | 7.37745 | 9948 ft | 271 kts | 274° |
| 2026-05-05 19:03 | 43.76255 | 7.35134 | 9945 ft | 274 kts | 274° |
| 2026-05-05 19:04 | 43.76470 | 7.32508 | 9946 ft | 275 kts | 274° |
| 2026-05-05 19:04 | 43.76689 | 7.29879 | 9946 ft | 276 kts | 276° |
| 2026-05-05 19:04 | 43.77178 | 7.27299 | 9941 ft | 279 kts | 290° |
| 2026-05-05 19:04 | 43.78152 | 7.24964 | 9990 ft | 286 kts | 306° |
| 2026-05-05 19:05 | 43.79614 | 7.23022 | 10796 ft | 295 kts | 320° |
| 2026-05-05 19:05 | 43.81294 | 7.21384 | 11816 ft | 298 kts | 321° |
| 2026-05-05 19:05 | 43.83052 | 7.19659 | 12263 ft | 322 kts | 320° |
| 2026-05-05 19:05 | 43.84941 | 7.17796 | 12692 ft | 341 kts | 320° |
| 2026-05-05 19:06 | 43.86905 | 7.15869 | 13425 ft | 349 kts | 320° |
| 2026-05-05 19:06 | 43.88904 | 7.13921 | 14240 ft | 354 kts | 320° |
| 2026-05-05 19:06 | 43.90939 | 7.11944 | 15023 ft | 359 kts | 320° |
| 2026-05-05 19:06 | 43.92996 | 7.09945 | 15672 ft | 363 kts | 319° |
| 2026-05-05 19:07 | 43.95078 | 7.07919 | 16390 ft | 368 kts | 319° |
| 2026-05-05 19:07 | 43.96474 | 7.06560 | 16900 ft | 372 kts | 319° |
| 2026-05-05 19:07 | 43.99307 | 7.03801 | 17903 ft | 378 kts | 319° |
| 2026-05-05 19:07 | 44.01501 | 7.01658 | 18617 ft | 383 kts | 319° |
| 2026-05-05 19:08 | 44.03691 | 6.99513 | 19275 ft | 388 kts | 319° |
| 2026-05-05 19:08 | 44.05908 | 6.97340 | 19958 ft | 391 kts | 319° |
| 2026-05-05 19:08 | 44.08140 | 6.95153 | 20630 ft | 394 kts | 318° |
| 2026-05-05 19:08 | 44.10325 | 6.93005 | 21258 ft | 397 kts | 318° |
| 2026-05-05 19:09 | 44.12694 | 6.90881 | 21913 ft | 407 kts | 326° |
| 2026-05-05 19:09 | 44.15300 | 6.89328 | 22534 ft | 418 kts | 336° |
| 2026-05-05 19:09 | 44.18176 | 6.88440 | 23148 ft | 430 kts | 348° |
| 2026-05-05 19:09 | 44.21172 | 6.87998 | 23696 ft | 435 kts | 349° |
| 2026-05-05 19:10 | 44.24189 | 6.87555 | 24219 ft | 437 kts | 348° |